ASA61 PAJN-PANC
Flight info
| Callsign | ASA61 |
|---|---|
| Flight time | N/A |
| Altitude | 36000 |
| Route | ASORT2 ASORT YESKA TED TAGER9 |
| Aircraft | B737/M-SDE2E3FGHIRWXY/LB1 |
Departure
| Time | 2026-04-12 04:46 |
|---|---|
| Airport | Juneau International Airport (PAJN) |
Arrival
| Time | N/A |
|---|---|
| Airport | Ted Stevens Anchorage International Airport (PANC) |
| Time | Latitude | Longitude | Altitude | Speed | Heading |
|---|---|---|---|---|---|
| 2026-04-12 04:46 | 58.32388 | -135.02997 | 11822 ft | 330 kts | 277° |
| 2026-04-12 04:46 | 58.32571 | -135.06442 | 12369 ft | 333 kts | 278° |
| 2026-04-12 04:46 | 58.32804 | -135.10847 | 13060 ft | 338 kts | 278° |
| 2026-04-12 04:46 | 58.33037 | -135.15276 | 13773 ft | 341 kts | 278° |
| 2026-04-12 04:47 | 58.33276 | -135.19850 | 14509 ft | 345 kts | 278° |
| 2026-04-12 04:47 | 58.33511 | -135.24374 | 15320 ft | 346 kts | 278° |
| 2026-04-12 04:47 | 58.33746 | -135.28932 | 16112 ft | 348 kts | 278° |
| 2026-04-12 04:47 | 58.33983 | -135.33562 | 16880 ft | 349 kts | 278° |
| 2026-04-12 04:48 | 58.34215 | -135.38119 | 17640 ft | 351 kts | 278° |
| 2026-04-12 04:48 | 58.34452 | -135.42792 | 18359 ft | 353 kts | 277° |
| 2026-04-12 04:48 | 58.34686 | -135.47461 | 19063 ft | 355 kts | 277° |
| 2026-04-12 04:48 | 58.34922 | -135.52148 | 19696 ft | 359 kts | 277° |
| 2026-04-12 04:49 | 58.35164 | -135.56903 | 20326 ft | 362 kts | 277° |
| 2026-04-12 04:49 | 58.35405 | -135.61693 | 20954 ft | 365 kts | 277° |
| 2026-04-12 04:49 | 58.35645 | -135.66501 | 21535 ft | 369 kts | 276° |
| 2026-04-12 04:49 | 58.35883 | -135.71350 | 22140 ft | 372 kts | 276° |
| 2026-04-12 04:50 | 58.36105 | -135.76323 | 22712 ft | 375 kts | 277° |
| 2026-04-12 04:50 | 58.36471 | -135.81158 | 23290 ft | 377 kts | 283° |
| 2026-04-12 04:50 | 58.37246 | -135.85965 | 23820 ft | 379 kts | 291° |
| 2026-04-12 04:50 | 58.38241 | -135.90590 | 24374 ft | 382 kts | 293° |
| 2026-04-12 04:51 | 58.39348 | -135.95200 | 24882 ft | 385 kts | 297° |
| 2026-04-12 04:51 | 58.40590 | -135.99754 | 25407 ft | 388 kts | 298° |
| 2026-04-12 04:51 | 58.41858 | -136.04228 | 25898 ft | 391 kts | 299° |
| 2026-04-12 04:51 | 58.43156 | -136.08827 | 26399 ft | 394 kts | 298° |
| 2026-04-12 04:52 | 58.44438 | -136.13446 | 26884 ft | 397 kts | 298° |
| 2026-04-12 04:52 | 58.45704 | -136.18092 | 27357 ft | 400 kts | 298° |
| 2026-04-12 04:52 | 58.46965 | -136.22797 | 27844 ft | 402 kts | 297° |
| 2026-04-12 04:52 | 58.48219 | -136.27527 | 28273 ft | 405 kts | 297° |
| 2026-04-12 04:53 | 58.49483 | -136.32341 | 28721 ft | 407 kts | 297° |
| 2026-04-12 04:53 | 58.50745 | -136.37174 | 29155 ft | 410 kts | 297° |
| 2026-04-12 04:53 | 58.53274 | -136.46925 | 29970 ft | 415 kts | 297° |
| 2026-04-12 04:54 | 58.54541 | -136.51829 | 30371 ft | 417 kts | 297° |
| 2026-04-12 04:54 | 58.55827 | -136.56825 | 30763 ft | 420 kts | 297° |
| 2026-04-12 04:54 | 58.57105 | -136.61800 | 31133 ft | 422 kts | 297° |
| 2026-04-12 04:54 | 58.58380 | -136.66777 | 31715 ft | 420 kts | 296° |
| 2026-04-12 04:55 | 58.59656 | -136.71770 | 32335 ft | 416 kts | 296° |
| 2026-04-12 04:55 | 58.60915 | -136.76701 | 32865 ft | 414 kts | 296° |
| 2026-04-12 04:55 | 58.62146 | -136.81541 | 33374 ft | 412 kts | 296° |
| 2026-04-12 04:55 | 58.63352 | -136.86290 | 33887 ft | 409 kts | 296° |
| 2026-04-12 04:56 | 58.64387 | -136.90373 | 34274 ft | 408 kts | 296° |
| 2026-04-12 04:56 | 58.66442 | -136.98508 | 34984 ft | 406 kts | 296° |
| 2026-04-12 04:56 | 58.67137 | -137.01266 | 35147 ft | 406 kts | 296° |
| 2026-04-12 04:57 | 58.68330 | -137.06003 | 35296 ft | 407 kts | 296° |
| 2026-04-12 04:58 | 58.68748 | -137.07665 | 35348 ft | 407 kts | 296° |
| 2026-04-12 04:58 | 58.69972 | -137.12544 | 35494 ft | 408 kts | 296° |
| 2026-04-12 04:58 | 58.71190 | -137.17410 | 35648 ft | 408 kts | 296° |
| 2026-04-12 04:58 | 58.72411 | -137.22295 | 35987 ft | 409 kts | 296° |
| 2026-04-12 04:59 | 58.73632 | -137.27191 | 35849 ft | 412 kts | 296° |
| 2026-04-12 04:59 | 58.76046 | -137.36906 | 35810 ft | 403 kts | 296° |
| 2026-04-12 05:00 | 58.78416 | -137.46481 | 35811 ft | 408 kts | 296° |